Archival Weather

Agadez

Agadez, Niger (DRZA)

Report from: Friday, February 23, 2024 2:00 PM WAT
Current time: Wednesday, April 24, 2024 8:03 PM WAT

Current weather – Weather history – Daily summaries
Weather forecast

Temperature31.0°C (87.8°F)
Heat index29.0°C (84.2°F)
Dew point-9.0°C (15.8°F)
Winds 14 kts (7.2 m/s, 16.1 mph) East (100°)
Clouds Sky clear
Altimeter29.94 in.Hg (1014 mB)
Relative humidity7 %
Density altitude1,865 ft. (569 m)
Remarks Ceiling and visibility OK
Flight conditions Visual Meteorological Conditions
Raw dataDRZA 231300Z 10014KT CAVOK 31/M09 Q1014
An error has occurred. This application may no longer respond until reloaded. Reload 🗙